sensor_id;sensor_type;location;lat;lon;timestamp;temperature;humidity
26336;DHT22;14047;50.936;4.654;2022-12-01T00:00:32;7.60;99.90
26336;DHT22;14047;50.936;4.654;2022-12-01T00:02:58;7.80;99.90
26336;DHT22;14047;50.936;4.654;2022-12-01T00:05:24;7.80;99.90
26336;DHT22;14047;50.936;4.654;2022-12-01T00:07:49;7.80;99.90
26336;DHT22;14047;50.936;4.654;2022-12-01T00:10:15;7.90;99.90
26336;DHT22;14047;50.936;4.654;2022-12-01T00:12:54;7.70;99.90
26336;DHT22;14047;50.936;4.654;2022-12-01T00:15:20;7.50;99.90
26336;DHT22;14047;50.936;4.654;2022-12-01T00:17:47;7.10;99.90
26336;DHT22;14047;50.936;4.654;2022-12-01T00:20:14;7.10;99.90
26336;DHT22;14047;50.936;4.654;2022-12-01T00:22:47;6.90;99.90
26336;DHT22;14047;50.936;4.654;2022-12-01T00:25:14;6.90;99.90
26336;DHT22;14047;50.936;4.654;2022-12-01T00:27:40;7.00;99.90
26336;DHT22;14047;50.936;4.654;2022-12-01T00:30:09;7.10;99.90
26336;DHT22;14047;50.936;4.654;2022-12-01T00:32:35;6.90;99.90
26336;DHT22;14047;50.936;4.654;2022-12-01T00:35:01;7.00;99.90
26336;DHT22;14047;50.936;4.654;2022-12-01T00:37:29;7.10;99.90
26336;DHT22;14047;50.936;4.654;2022-12-01T00:39:56;7.00;99.90
26336;DHT22;14047;50.936;4.654;2022-12-01T00:42:22;6.90;99.90
26336;DHT22;14047;50.936;4.654;2022-12-01T00:44:47;7.10;99.90
26336;DHT22;14047;50.936;4.654;2022-12-01T00:47:13;7.30;99.90
26336;DHT22;14047;50.936;4.654;2022-12-01T00:49:39;7.30;99.90
26336;DHT22;14047;50.936;4.654;2022-12-01T00:52:05;7.30;99.90
26336;DHT22;14047;50.936;4.654;2022-12-01T00:54:31;7.00;99.90
26336;DHT22;14047;50.936;4.654;2022-12-01T00:56:58;6.90;99.90
26336;DHT22;14047;50.936;4.654;2022-12-01T00:59:23;6.90;99.90
26336;DHT22;14047;50.936;4.654;2022-12-01T01:01:49;6.90;99.90
26336;DHT22;14047;50.936;4.654;2022-12-01T01:04:15;6.80;99.90
26336;DHT22;14047;50.936;4.654;2022-12-01T01:06:41;7.00;99.90
26336;DHT22;14047;50.936;4.654;2022-12-01T01:09:10;6.90;99.90
26336;DHT22;14047;50.936;4.654;2022-12-01T01:11:36;6.80;99.90
26336;DHT22;14047;50.936;4.654;2022-12-01T01:14:02;6.80;99.90
26336;DHT22;14047;50.936;4.654;2022-12-01T01:16:28;6.60;99.90
26336;DHT22;14047;50.936;4.654;2022-12-01T01:18:54;6.70;99.90
26336;DHT22;14047;50.936;4.654;2022-12-01T01:21:22;6.40;99.90
26336;DHT22;14047;50.936;4.654;2022-12-01T01:23:49;6.30;99.90
26336;DHT22;14047;50.936;4.654;2022-12-01T01:26:26;6.30;99.90
26336;DHT22;14047;50.936;4.654;2022-12-01T01:28:54;6.30;99.90
26336;DHT22;14047;50.936;4.654;2022-12-01T01:31:22;6.30;99.90
26336;DHT22;14047;50.936;4.654;2022-12-01T01:33:48;6.30;99.90
26336;DHT22;14047;50.936;4.654;2022-12-01T01:36:15;6.30;99.90
26336;DHT22;14047;50.936;4.654;2022-12-01T01:38:41;6.30;99.90
26336;DHT22;14047;50.936;4.654;2022-12-01T01:41:07;6.50;99.90
26336;DHT22;14047;50.936;4.654;2022-12-01T01:43:52;6.60;99.90
26336;DHT22;14047;50.936;4.654;2022-12-01T01:46:24;6.30;99.90
26336;DHT22;14047;50.936;4.654;2022-12-01T01:48:54;6.20;99.90
26336;DHT22;14047;50.936;4.654;2022-12-01T01:51:31;6.30;99.90
26336;DHT22;14047;50.936;4.654;2022-12-01T01:54:03;6.40;99.90
26336;DHT22;14047;50.936;4.654;2022-12-01T01:56:30;6.30;99.90
26336;DHT22;14047;50.936;4.654;2022-12-01T01:58:57;6.30;99.90
26336;DHT22;14047;50.936;4.654;2022-12-01T02:01:23;6.30;99.90
26336;DHT22;14047;50.936;4.654;2022-12-01T02:03:51;6.30;99.90
26336;DHT22;14047;50.936;4.654;2022-12-01T02:06:17;6.10;99.90
26336;DHT22;14047;50.936;4.654;2022-12-01T02:08:43;6.10;99.90
26336;DHT22;14047;50.936;4.654;2022-12-01T02:30:46;5.90;99.90
26336;DHT22;14047;50.936;4.654;2022-12-01T02:33:15;5.90;99.90
26336;DHT22;14047;50.936;4.654;2022-12-01T02:38:51;6.00;99.90
26336;DHT22;14047;50.936;4.654;2022-12-01T02:41:34;5.90;99.90
26336;DHT22;14047;50.936;4.654;2022-12-01T02:44:15;6.10;99.90
26336;DHT22;14047;50.936;4.654;2022-12-01T02:49:41;6.10;99.90
26336;DHT22;14047;50.936;4.654;2022-12-01T02:52:10;6.20;99.90
26336;DHT22;14047;50.936;4.654;2022-12-01T02:54:38;6.10;99.90
26336;DHT22;14047;50.936;4.654;2022-12-01T02:57:04;6.10;99.90
26336;DHT22;14047;50.936;4.654;2022-12-01T02:59:29;6.30;99.90
26336;DHT22;14047;50.936;4.654;2022-12-01T03:07:58;6.10;99.90
26336;DHT22;14047;50.936;4.654;2022-12-01T03:15:54;5.90;99.90
26336;DHT22;14047;50.936;4.654;2022-12-01T03:18:37;5.90;99.90
26336;DHT22;14047;50.936;4.654;2022-12-01T03:21:08;6.20;99.90
26336;DHT22;14047;50.936;4.654;2022-12-01T03:23:38;6.20;99.90
26336;DHT22;14047;50.936;4.654;2022-12-01T03:26:07;6.20;99.90
26336;DHT22;14047;50.936;4.654;2022-12-01T03:28:38;6.10;99.90
26336;DHT22;14047;50.936;4.654;2022-12-01T03:31:11;6.10;99.90
26336;DHT22;14047;50.936;4.654;2022-12-01T03:33:42;6.10;99.90
26336;DHT22;14047;50.936;4.654;2022-12-01T03:36:09;6.30;99.90
26336;DHT22;14047;50.936;4.654;2022-12-01T03:38:36;6.20;99.90
26336;DHT22;14047;50.936;4.654;2022-12-01T03:41:09;6.30;99.90
26336;DHT22;14047;50.936;4.654;2022-12-01T03:43:40;6.20;99.90
26336;DHT22;14047;50.936;4.654;2022-12-01T03:46:14;6.10;99.90
26336;DHT22;14047;50.936;4.654;2022-12-01T03:48:42;6.20;99.90
26336;DHT22;14047;50.936;4.654;2022-12-01T03:53:49;6.30;99.90
26336;DHT22;14047;50.936;4.654;2022-12-01T03:56:24;6.10;99.90
26336;DHT22;14047;50.936;4.654;2022-12-01T03:58:51;6.10;99.90
26336;DHT22;14047;50.936;4.654;2022-12-01T04:01:19;6.20;99.90
26336;DHT22;14047;50.936;4.654;2022-12-01T04:03:46;6.30;99.90
26336;DHT22;14047;50.936;4.654;2022-12-01T04:06:12;6.60;99.90
26336;DHT22;14047;50.936;4.654;2022-12-01T04:08:38;6.40;99.90
26336;DHT22;14047;50.936;4.654;2022-12-01T04:11:04;6.20;99.90
26336;DHT22;14047;50.936;4.654;2022-12-01T04:13:50;6.30;99.90
26336;DHT22;14047;50.936;4.654;2022-12-01T04:16:18;6.20;99.90
26336;DHT22;14047;50.936;4.654;2022-12-01T04:18:44;6.20;99.90
26336;DHT22;14047;50.936;4.654;2022-12-01T04:21:09;6.30;99.90
26336;DHT22;14047;50.936;4.654;2022-12-01T04:23:35;6.00;99.90
26336;DHT22;14047;50.936;4.654;2022-12-01T04:26:19;6.00;99.90
26336;DHT22;14047;50.936;4.654;2022-12-01T04:28:45;6.10;99.90
26336;DHT22;14047;50.936;4.654;2022-12-01T04:31:10;6.00;99.90
26336;DHT22;14047;50.936;4.654;2022-12-01T04:33:36;6.00;99.90
26336;DHT22;14047;50.936;4.654;2022-12-01T04:36:04;6.20;99.90
26336;DHT22;14047;50.936;4.654;2022-12-01T04:38:30;6.10;99.90
26336;DHT22;14047;50.936;4.654;2022-12-01T04:40:56;6.30;99.90
26336;DHT22;14047;50.936;4.654;2022-12-01T04:43:21;6.20;99.90
26336;DHT22;14047;50.936;4.654;2022-12-01T04:45:47;6.40;99.90
26336;DHT22;14047;50.936;4.654;2022-12-01T04:48:13;6.20;99.90
26336;DHT22;14047;50.936;4.654;2022-12-01T04:50:39;6.20;99.90
26336;DHT22;14047;50.936;4.654;2022-12-01T04:53:05;6.20;99.90
26336;DHT22;14047;50.936;4.654;2022-12-01T04:55:35;6.20;99.90
26336;DHT22;14047;50.936;4.654;2022-12-01T04:58:01;6.20;99.90
26336;DHT22;14047;50.936;4.654;2022-12-01T05:00:29;6.20;99.90
26336;DHT22;14047;50.936;4.654;2022-12-01T05:02:55;6.30;99.90
26336;DHT22;14047;50.936;4.654;2022-12-01T05:05:21;6.30;99.90
26336;DHT22;14047;50.936;4.654;2022-12-01T05:07:49;6.40;99.90
26336;DHT22;14047;50.936;4.654;2022-12-01T05:10:14;6.50;99.90
26336;DHT22;14047;50.936;4.654;2022-12-01T05:12:43;6.70;99.90
26336;DHT22;14047;50.936;4.654;2022-12-01T05:15:11;6.70;99.90
26336;DHT22;14047;50.936;4.654;2022-12-01T05:17:36;6.70;99.90
26336;DHT22;14047;50.936;4.654;2022-12-01T05:20:03;6.70;99.90
26336;DHT22;14047;50.936;4.654;2022-12-01T05:22:48;6.50;99.90
26336;DHT22;14047;50.936;4.654;2022-12-01T05:25:13;6.40;99.90
26336;DHT22;14047;50.936;4.654;2022-12-01T05:27:39;6.40;99.90
26336;DHT22;14047;50.936;4.654;2022-12-01T05:30:06;6.50;99.90
26336;DHT22;14047;50.936;4.654;2022-12-01T05:32:31;6.70;99.90
26336;DHT22;14047;50.936;4.654;2022-12-01T05:34:57;6.70;99.90
26336;DHT22;14047;50.936;4.654;2022-12-01T05:37:22;6.60;99.90
26336;DHT22;14047;50.936;4.654;2022-12-01T05:39:48;6.70;99.90
26336;DHT22;14047;50.936;4.654;2022-12-01T05:42:14;6.80;99.90
26336;DHT22;14047;50.936;4.654;2022-12-01T05:44:39;6.70;99.90
26336;DHT22;14047;50.936;4.654;2022-12-01T05:47:05;6.60;99.90
26336;DHT22;14047;50.936;4.654;2022-12-01T05:49:30;6.70;99.90
26336;DHT22;14047;50.936;4.654;2022-12-01T05:51:56;6.80;99.90
26336;DHT22;14047;50.936;4.654;2022-12-01T05:54:22;6.90;99.90
26336;DHT22;14047;50.936;4.654;2022-12-01T05:56:47;7.00;99.90
26336;DHT22;14047;50.936;4.654;2022-12-01T05:59:13;6.90;99.90
26336;DHT22;14047;50.936;4.654;2022-12-01T06:01:38;6.90;99.90
26336;DHT22;14047;50.936;4.654;2022-12-01T06:04:04;6.90;99.90
26336;DHT22;14047;50.936;4.654;2022-12-01T06:06:30;6.80;99.90
26336;DHT22;14047;50.936;4.654;2022-12-01T06:08:55;6.80;99.90
26336;DHT22;14047;50.936;4.654;2022-12-01T06:11:21;6.90;99.90
26336;DHT22;14047;50.936;4.654;2022-12-01T06:13:46;6.70;99.90
26336;DHT22;14047;50.936;4.654;2022-12-01T06:16:14;6.60;99.90
26336;DHT22;14047;50.936;4.654;2022-12-01T06:18:40;6.40;99.90
26336;DHT22;14047;50.936;4.654;2022-12-01T06:21:06;6.40;99.90
26336;DHT22;14047;50.936;4.654;2022-12-01T06:23:32;6.50;99.90
26336;DHT22;14047;50.936;4.654;2022-12-01T06:25:57;6.50;99.90
26336;DHT22;14047;50.936;4.654;2022-12-01T06:28:23;6.70;99.90
26336;DHT22;14047;50.936;4.654;2022-12-01T06:30:49;6.80;99.90
26336;DHT22;14047;50.936;4.654;2022-12-01T06:33:14;6.90;99.90
26336;DHT22;14047;50.936;4.654;2022-12-01T06:35:40;6.90;99.90
26336;DHT22;14047;50.936;4.654;2022-12-01T06:38:06;6.90;99.90
26336;DHT22;14047;50.936;4.654;2022-12-01T06:40:31;6.70;99.90
26336;DHT22;14047;50.936;4.654;2022-12-01T06:43:01;6.90;99.90
26336;DHT22;14047;50.936;4.654;2022-12-01T06:45:31;7.10;99.90
26336;DHT22;14047;50.936;4.654;2022-12-01T06:47:56;7.10;99.90
26336;DHT22;14047;50.936;4.654;2022-12-01T06:50:23;7.00;99.90
26336;DHT22;14047;50.936;4.654;2022-12-01T06:52:49;6.80;99.90
26336;DHT22;14047;50.936;4.654;2022-12-01T06:55:15;6.80;99.90
26336;DHT22;14047;50.936;4.654;2022-12-01T06:57:40;6.80;99.90
26336;DHT22;14047;50.936;4.654;2022-12-01T07:00:08;6.80;99.90
26336;DHT22;14047;50.936;4.654;2022-12-01T07:02:35;6.80;99.90
26336;DHT22;14047;50.936;4.654;2022-12-01T07:05:00;7.00;99.90
26336;DHT22;14047;50.936;4.654;2022-12-01T07:07:26;7.00;99.90
26336;DHT22;14047;50.936;4.654;2022-12-01T07:09:52;7.00;99.90
26336;DHT22;14047;50.936;4.654;2022-12-01T07:12:17;7.00;99.90
26336;DHT22;14047;50.936;4.654;2022-12-01T07:14:44;7.00;99.90
26336;DHT22;14047;50.936;4.654;2022-12-01T07:17:09;6.90;99.90
26336;DHT22;14047;50.936;4.654;2022-12-01T07:19:35;6.80;99.90
26336;DHT22;14047;50.936;4.654;2022-12-01T07:22:01;6.70;99.90
26336;DHT22;14047;50.936;4.654;2022-12-01T07:24:26;6.60;99.90
26336;DHT22;14047;50.936;4.654;2022-12-01T07:26:52;6.60;99.90
26336;DHT22;14047;50.936;4.654;2022-12-01T07:29:18;6.70;99.90
26336;DHT22;14047;50.936;4.654;2022-12-01T07:31:43;6.80;99.90
26336;DHT22;14047;50.936;4.654;2022-12-01T07:34:10;6.80;99.90
26336;DHT22;14047;50.936;4.654;2022-12-01T07:36:37;6.70;99.90
26336;DHT22;14047;50.936;4.654;2022-12-01T07:39:07;6.60;99.90
26336;DHT22;14047;50.936;4.654;2022-12-01T07:41:33;6.60;99.90
26336;DHT22;14047;50.936;4.654;2022-12-01T07:43:59;6.50;99.90
26336;DHT22;14047;50.936;4.654;2022-12-01T07:46:26;6.60;99.90
26336;DHT22;14047;50.936;4.654;2022-12-01T07:48:53;6.60;99.90
26336;DHT22;14047;50.936;4.654;2022-12-01T07:51:20;6.60;99.90
26336;DHT22;14047;50.936;4.654;2022-12-01T07:53:48;6.60;99.90
26336;DHT22;14047;50.936;4.654;2022-12-01T07:56:14;6.40;99.90
26336;DHT22;14047;50.936;4.654;2022-12-01T07:58:40;6.30;99.90
26336;DHT22;14047;50.936;4.654;2022-12-01T08:01:10;6.50;99.90
26336;DHT22;14047;50.936;4.654;2022-12-01T08:03:37;6.50;99.90
26336;DHT22;14047;50.936;4.654;2022-12-01T08:06:03;6.50;99.90
26336;DHT22;14047;50.936;4.654;2022-12-01T08:08:31;6.60;99.90
26336;DHT22;14047;50.936;4.654;2022-12-01T08:11:02;6.70;99.90
26336;DHT22;14047;50.936;4.654;2022-12-01T08:13:29;6.70;99.90
26336;DHT22;14047;50.936;4.654;2022-12-01T08:15:55;6.60;99.90
26336;DHT22;14047;50.936;4.654;2022-12-01T08:18:21;6.80;99.90
26336;DHT22;14047;50.936;4.654;2022-12-01T08:20:47;6.90;99.90
26336;DHT22;14047;50.936;4.654;2022-12-01T08:23:13;7.00;99.90
26336;DHT22;14047;50.936;4.654;2022-12-01T08:25:39;6.80;99.90
26336;DHT22;14047;50.936;4.654;2022-12-01T08:28:04;6.90;99.90
26336;DHT22;14047;50.936;4.654;2022-12-01T08:30:30;6.90;99.90
26336;DHT22;14047;50.936;4.654;2022-12-01T08:32:56;6.80;99.90
26336;DHT22;14047;50.936;4.654;2022-12-01T08:35:23;6.60;99.90
26336;DHT22;14047;50.936;4.654;2022-12-01T08:37:51;6.60;99.90
26336;DHT22;14047;50.936;4.654;2022-12-01T08:40:18;6.60;99.90
26336;DHT22;14047;50.936;4.654;2022-12-01T08:42:44;6.60;99.90
26336;DHT22;14047;50.936;4.654;2022-12-01T08:45:10;6.40;99.90
26336;DHT22;14047;50.936;4.654;2022-12-01T08:47:36;6.50;99.90
26336;DHT22;14047;50.936;4.654;2022-12-01T08:50:02;6.70;99.90
26336;DHT22;14047;50.936;4.654;2022-12-01T08:52:33;6.50;99.90
26336;DHT22;14047;50.936;4.654;2022-12-01T08:54:59;6.50;99.90
26336;DHT22;14047;50.936;4.654;2022-12-01T08:57:25;6.60;99.90
26336;DHT22;14047;50.936;4.654;2022-12-01T08:59:50;6.70;99.90
26336;DHT22;14047;50.936;4.654;2022-12-01T09:02:16;6.80;99.90
26336;DHT22;14047;50.936;4.654;2022-12-01T09:04:46;7.00;99.90
26336;DHT22;14047;50.936;4.654;2022-12-01T09:07:14;6.80;99.90
26336;DHT22;14047;50.936;4.654;2022-12-01T09:09:44;6.90;99.90
26336;DHT22;14047;50.936;4.654;2022-12-01T09:12:10;7.00;99.90
26336;DHT22;14047;50.936;4.654;2022-12-01T09:14:41;7.20;99.90
26336;DHT22;14047;50.936;4.654;2022-12-01T09:17:08;7.00;99.90
26336;DHT22;14047;50.936;4.654;2022-12-01T09:19:34;7.00;99.90
26336;DHT22;14047;50.936;4.654;2022-12-01T09:22:00;7.20;99.90
26336;DHT22;14047;50.936;4.654;2022-12-01T09:24:26;7.10;99.90
26336;DHT22;14047;50.936;4.654;2022-12-01T09:26:56;6.80;99.90
26336;DHT22;14047;50.936;4.654;2022-12-01T09:29:22;6.70;99.90
26336;DHT22;14047;50.936;4.654;2022-12-01T09:31:48;6.80;99.90
26336;DHT22;14047;50.936;4.654;2022-12-01T09:34:18;6.90;99.90
26336;DHT22;14047;50.936;4.654;2022-12-01T09:36:44;6.70;99.90
26336;DHT22;14047;50.936;4.654;2022-12-01T09:39:16;6.70;99.90
26336;DHT22;14047;50.936;4.654;2022-12-01T09:42:02;7.00;99.90
26336;DHT22;14047;50.936;4.654;2022-12-01T09:47:06;6.90;99.90
26336;DHT22;14047;50.936;4.654;2022-12-01T09:49:40;6.90;99.90
26336;DHT22;14047;50.936;4.654;2022-12-01T09:52:14;6.90;99.90
26336;DHT22;14047;50.936;4.654;2022-12-01T09:54:40;7.10;99.90
26336;DHT22;14047;50.936;4.654;2022-12-01T09:57:34;7.00;99.90
26336;DHT22;14047;50.936;4.654;2022-12-01T10:00:01;6.80;99.90
26336;DHT22;14047;50.936;4.654;2022-12-01T10:02:47;7.00;99.90
26336;DHT22;14047;50.936;4.654;2022-12-01T10:05:22;7.20;99.90
26336;DHT22;14047;50.936;4.654;2022-12-01T10:07:57;7.20;99.90
26336;DHT22;14047;50.936;4.654;2022-12-01T10:10:47;7.00;99.90
26336;DHT22;14047;50.936;4.654;2022-12-01T10:13:24;7.20;99.90
26336;DHT22;14047;50.936;4.654;2022-12-01T10:18:55;7.40;99.90
26336;DHT22;14047;50.936;4.654;2022-12-01T10:32:16;7.80;99.90
26336;DHT22;14047;50.936;4.654;2022-12-01T10:34:43;7.80;99.90
26336;DHT22;14047;50.936;4.654;2022-12-01T10:37:29;7.70;99.90
26336;DHT22;14047;50.936;4.654;2022-12-01T10:39:56;7.60;99.90
26336;DHT22;14047;50.936;4.654;2022-12-01T10:42:39;7.90;99.90
26336;DHT22;14047;50.936;4.654;2022-12-01T10:45:24;8.10;99.90
26336;DHT22;14047;50.936;4.654;2022-12-01T10:48:16;8.10;99.90
26336;DHT22;14047;50.936;4.654;2022-12-01T10:58:26;8.20;99.90
26336;DHT22;14047;50.936;4.654;2022-12-01T11:01:02;8.20;99.90
26336;DHT22;14047;50.936;4.654;2022-12-01T11:03:33;8.40;99.90
26336;DHT22;14047;50.936;4.654;2022-12-01T11:06:01;8.70;99.90
26336;DHT22;14047;50.936;4.654;2022-12-01T11:08:42;8.90;99.90
26336;DHT22;14047;50.936;4.654;2022-12-01T11:11:32;8.60;99.90
26336;DHT22;14047;50.936;4.654;2022-12-01T11:14:02;8.30;99.90
26336;DHT22;14047;50.936;4.654;2022-12-01T11:16:48;8.30;99.90
26336;DHT22;14047;50.936;4.654;2022-12-01T11:19:31;8.50;99.90
26336;DHT22;14047;50.936;4.654;2022-12-01T11:22:00;8.60;99.90
26336;DHT22;14047;50.936;4.654;2022-12-01T11:24:46;8.60;99.90
26336;DHT22;14047;50.936;4.654;2022-12-01T11:29:59;8.80;99.90
26336;DHT22;14047;50.936;4.654;2022-12-01T11:32:29;8.80;99.90
26336;DHT22;14047;50.936;4.654;2022-12-01T11:34:59;8.90;99.90
26336;DHT22;14047;50.936;4.654;2022-12-01T11:37:36;8.70;99.90
26336;DHT22;14047;50.936;4.654;2022-12-01T11:40:28;8.40;99.90
26336;DHT22;14047;50.936;4.654;2022-12-01T11:42:59;8.00;99.90
26336;DHT22;14047;50.936;4.654;2022-12-01T11:45:31;8.10;99.90
26336;DHT22;14047;50.936;4.654;2022-12-01T11:50:26;8.20;99.90
26336;DHT22;14047;50.936;4.654;2022-12-01T11:52:52;8.30;99.90
26336;DHT22;14047;50.936;4.654;2022-12-01T11:55:20;8.50;99.90
26336;DHT22;14047;50.936;4.654;2022-12-01T11:57:49;8.70;99.90
26336;DHT22;14047;50.936;4.654;2022-12-01T12:00:23;8.30;99.90
26336;DHT22;14047;50.936;4.654;2022-12-01T12:03:17;8.20;99.90
26336;DHT22;14047;50.936;4.654;2022-12-01T12:06:21;8.10;99.90
26336;DHT22;14047;50.936;4.654;2022-12-01T12:17:34;8.20;99.90
26336;DHT22;14047;50.936;4.654;2022-12-01T12:28:18;7.70;99.90
26336;DHT22;14047;50.936;4.654;2022-12-01T12:41:34;8.20;99.90
26336;DHT22;14047;50.936;4.654;2022-12-01T12:46:55;8.60;99.90
26336;DHT22;14047;50.936;4.654;2022-12-01T12:52:40;8.30;99.90
26336;DHT22;14047;50.936;4.654;2022-12-01T12:55:25;8.20;99.90
26336;DHT22;14047;50.936;4.654;2022-12-01T12:58:38;8.10;99.90
26336;DHT22;14047;50.936;4.654;2022-12-01T13:01:14;8.00;99.90
26336;DHT22;14047;50.936;4.654;2022-12-01T13:03:58;7.90;99.90
26336;DHT22;14047;50.936;4.654;2022-12-01T13:06:25;7.90;99.90
26336;DHT22;14047;50.936;4.654;2022-12-01T13:08:58;8.10;99.90
26336;DHT22;14047;50.936;4.654;2022-12-01T13:11:29;8.10;99.90
26336;DHT22;14047;50.936;4.654;2022-12-01T13:16:49;8.30;99.90
26336;DHT22;14047;50.936;4.654;2022-12-01T13:19:31;8.30;99.90
26336;DHT22;14047;50.936;4.654;2022-12-01T13:21:58;8.30;99.90
26336;DHT22;14047;50.936;4.654;2022-12-01T13:24:28;8.10;99.90
26336;DHT22;14047;50.936;4.654;2022-12-01T13:26:59;8.00;99.90
26336;DHT22;14047;50.936;4.654;2022-12-01T13:29:27;8.10;99.90
26336;DHT22;14047;50.936;4.654;2022-12-01T13:31:53;8.00;99.90
26336;DHT22;14047;50.936;4.654;2022-12-01T13:36:49;8.20;99.90
26336;DHT22;14047;50.936;4.654;2022-12-01T13:39:32;8.20;99.90
26336;DHT22;14047;50.936;4.654;2022-12-01T13:42:04;8.20;99.90
26336;DHT22;14047;50.936;4.654;2022-12-01T13:44:40;8.00;99.90
26336;DHT22;14047;50.936;4.654;2022-12-01T14:00:27;7.90;99.90
26336;DHT22;14047;50.936;4.654;2022-12-01T14:08:21;8.10;99.90
26336;DHT22;14047;50.936;4.654;2022-12-01T14:13:24;8.20;99.90
26336;DHT22;14047;50.936;4.654;2022-12-01T14:15:58;8.20;99.90
26336;DHT22;14047;50.936;4.654;2022-12-01T14:21:04;8.60;99.90
26336;DHT22;14047;50.936;4.654;2022-12-01T14:23:33;8.50;99.90
26336;DHT22;14047;50.936;4.654;2022-12-01T14:26:18;8.20;99.90
26336;DHT22;14047;50.936;4.654;2022-12-01T14:34:18;8.00;99.90
26336;DHT22;14047;50.936;4.654;2022-12-01T14:37:01;8.00;99.90
26336;DHT22;14047;50.936;4.654;2022-12-01T14:39:30;8.00;99.90
26336;DHT22;14047;50.936;4.654;2022-12-01T14:42:14;8.00;99.90
26336;DHT22;14047;50.936;4.654;2022-12-01T14:45:04;7.90;99.90
26336;DHT22;14047;50.936;4.654;2022-12-01T14:47:53;8.00;99.90
26336;DHT22;14047;50.936;4.654;2022-12-01T14:50:21;8.10;99.90
26336;DHT22;14047;50.936;4.654;2022-12-01T14:52:57;8.30;99.90
26336;DHT22;14047;50.936;4.654;2022-12-01T14:55:36;8.20;99.90
26336;DHT22;14047;50.936;4.654;2022-12-01T14:58:06;8.20;99.90
26336;DHT22;14047;50.936;4.654;2022-12-01T15:00:35;8.20;99.90
26336;DHT22;14047;50.936;4.654;2022-12-01T15:03:12;8.10;99.90
26336;DHT22;14047;50.936;4.654;2022-12-01T15:05:40;8.00;99.90
26336;DHT22;14047;50.936;4.654;2022-12-01T15:08:23;8.10;99.90
26336;DHT22;14047;50.936;4.654;2022-12-01T15:10:52;8.10;99.90
26336;DHT22;14047;50.936;4.654;2022-12-01T15:15:53;8.20;99.90
26336;DHT22;14047;50.936;4.654;2022-12-01T15:18:35;8.10;99.90
26336;DHT22;14047;50.936;4.654;2022-12-01T15:23:52;8.20;99.90
26336;DHT22;14047;50.936;4.654;2022-12-01T15:26:19;8.10;99.90
26336;DHT22;14047;50.936;4.654;2022-12-01T15:28:46;8.00;99.90
26336;DHT22;14047;50.936;4.654;2022-12-01T15:31:12;7.90;99.90
26336;DHT22;14047;50.936;4.654;2022-12-01T15:33:51;7.70;99.90
26336;DHT22;14047;50.936;4.654;2022-12-01T15:36:17;7.60;99.90
26336;DHT22;14047;50.936;4.654;2022-12-01T15:38:45;7.60;99.90
26336;DHT22;14047;50.936;4.654;2022-12-01T15:41:20;7.50;99.90
26336;DHT22;14047;50.936;4.654;2022-12-01T15:43:54;7.40;99.90
26336;DHT22;14047;50.936;4.654;2022-12-01T15:46:29;7.60;99.90
26336;DHT22;14047;50.936;4.654;2022-12-01T15:49:19;7.40;99.90
26336;DHT22;14047;50.936;4.654;2022-12-01T15:51:46;7.20;99.90
26336;DHT22;14047;50.936;4.654;2022-12-01T15:54:22;7.30;99.90
26336;DHT22;14047;50.936;4.654;2022-12-01T15:56:56;7.40;99.90
26336;DHT22;14047;50.936;4.654;2022-12-01T15:59:30;7.40;99.90
26336;DHT22;14047;50.936;4.654;2022-12-01T16:01:58;7.20;99.90
26336;DHT22;14047;50.936;4.654;2022-12-01T16:04:29;7.30;99.90
26336;DHT22;14047;50.936;4.654;2022-12-01T16:07:03;7.40;99.90
26336;DHT22;14047;50.936;4.654;2022-12-01T16:09:31;7.20;99.90
26336;DHT22;14047;50.936;4.654;2022-12-01T16:17:19;7.20;99.90
26336;DHT22;14047;50.936;4.654;2022-12-01T16:19:45;7.10;99.90
26336;DHT22;14047;50.936;4.654;2022-12-01T16:22:14;7.00;99.90
26336;DHT22;14047;50.936;4.654;2022-12-01T16:24:49;7.00;99.90
26336;DHT22;14047;50.936;4.654;2022-12-01T16:27:28;7.00;99.90
26336;DHT22;14047;50.936;4.654;2022-12-01T16:30:03;7.10;99.90
26336;DHT22;14047;50.936;4.654;2022-12-01T16:34:57;7.00;99.90
26336;DHT22;14047;50.936;4.654;2022-12-01T16:37:23;6.90;99.90
26336;DHT22;14047;50.936;4.654;2022-12-01T16:39:49;7.00;99.90
26336;DHT22;14047;50.936;4.654;2022-12-01T16:42:17;7.10;99.90
26336;DHT22;14047;50.936;4.654;2022-12-01T16:44:45;7.10;99.90
26336;DHT22;14047;50.936;4.654;2022-12-01T16:47:30;7.10;99.90
26336;DHT22;14047;50.936;4.654;2022-12-01T16:49:56;7.00;99.90
26336;DHT22;14047;50.936;4.654;2022-12-01T16:52:22;7.00;99.90
26336;DHT22;14047;50.936;4.654;2022-12-01T16:54:48;7.00;99.90
26336;DHT22;14047;50.936;4.654;2022-12-01T16:57:14;7.20;99.90
26336;DHT22;14047;50.936;4.654;2022-12-01T16:59:42;7.10;99.90
26336;DHT22;14047;50.936;4.654;2022-12-01T17:02:09;7.10;99.90
26336;DHT22;14047;50.936;4.654;2022-12-01T17:04:34;7.20;99.90
26336;DHT22;14047;50.936;4.654;2022-12-01T17:07:00;7.20;99.90
26336;DHT22;14047;50.936;4.654;2022-12-01T17:09:26;7.20;99.90
26336;DHT22;14047;50.936;4.654;2022-12-01T17:11:52;7.20;99.90
26336;DHT22;14047;50.936;4.654;2022-12-01T17:14:17;7.30;99.90
26336;DHT22;14047;50.936;4.654;2022-12-01T17:16:43;7.20;99.90
26336;DHT22;14047;50.936;4.654;2022-12-01T17:19:09;7.10;99.90
26336;DHT22;14047;50.936;4.654;2022-12-01T17:21:35;7.20;99.90
26336;DHT22;14047;50.936;4.654;2022-12-01T17:24:01;7.20;99.90
26336;DHT22;14047;50.936;4.654;2022-12-01T17:26:27;7.20;99.90
26336;DHT22;14047;50.936;4.654;2022-12-01T17:28:53;7.20;99.90
26336;DHT22;14047;50.936;4.654;2022-12-01T17:31:19;7.50;99.90
26336;DHT22;14047;50.936;4.654;2022-12-01T17:33:45;7.00;99.90
26336;DHT22;14047;50.936;4.654;2022-12-01T17:36:12;7.10;99.90
26336;DHT22;14047;50.936;4.654;2022-12-01T17:38:40;7.10;99.90
26336;DHT22;14047;50.936;4.654;2022-12-01T17:41:09;6.90;99.90
26336;DHT22;14047;50.936;4.654;2022-12-01T17:43:36;6.90;99.90
26336;DHT22;14047;50.936;4.654;2022-12-01T17:46:04;6.90;99.90
26336;DHT22;14047;50.936;4.654;2022-12-01T17:48:34;7.00;99.90
26336;DHT22;14047;50.936;4.654;2022-12-01T17:51:00;6.80;99.90
26336;DHT22;14047;50.936;4.654;2022-12-01T17:53:26;6.70;99.90
26336;DHT22;14047;50.936;4.654;2022-12-01T17:55:52;6.80;99.90
26336;DHT22;14047;50.936;4.654;2022-12-01T17:58:17;7.10;99.90
26336;DHT22;14047;50.936;4.654;2022-12-01T18:00:47;7.30;99.90
26336;DHT22;14047;50.936;4.654;2022-12-01T18:03:13;7.30;99.90
26336;DHT22;14047;50.936;4.654;2022-12-01T18:05:38;7.10;99.90
26336;DHT22;14047;50.936;4.654;2022-12-01T18:08:04;7.20;99.90
26336;DHT22;14047;50.936;4.654;2022-12-01T18:10:30;7.20;99.90
26336;DHT22;14047;50.936;4.654;2022-12-01T18:12:55;7.10;99.90
26336;DHT22;14047;50.936;4.654;2022-12-01T18:15:21;7.10;99.90
26336;DHT22;14047;50.936;4.654;2022-12-01T18:17:50;7.10;99.90
26336;DHT22;14047;50.936;4.654;2022-12-01T18:20:17;7.00;99.90
26336;DHT22;14047;50.936;4.654;2022-12-01T18:22:43;6.90;99.90
26336;DHT22;14047;50.936;4.654;2022-12-01T18:25:09;7.10;99.90
26336;DHT22;14047;50.936;4.654;2022-12-01T18:27:34;7.30;99.90
26336;DHT22;14047;50.936;4.654;2022-12-01T18:30:00;7.30;99.90